Time;durP1;ratioP1;P1;durP2;ratioP2;P2;SDS_P1;SDS_P2;PMS_P1;PMS_P2;Temp;Humidity;BMP_temperature;BMP_pressure;BME280_temperature;BME280_humidity;BME280_pressure;Samples;Min_cycle;Max_cycle;Signal;HPM_P1;HPM_P2
2023/03/10 00:00:11;;;;;;;14.97;6.60;;;8.70;99.90;;;;;;5015527;28;20183;-85
2023/03/10 00:02:37;;;;;;;16.20;7.00;;;8.60;99.90;;;;;;4998088;28;20191;-85
2023/03/10 00:05:04;;;;;;;19.50;7.27;;;8.60;99.90;;;;;;4998437;28;20614;-84
2023/03/10 00:07:29;;;;;;;13.87;5.67;;;8.60;99.90;;;;;;4999554;28;20183;-84
2023/03/10 00:09:55;;;;;;;19.50;6.13;;;8.60;99.90;;;;;;5001951;28;20239;-84
2023/03/10 00:12:21;;;;;;;21.90;6.63;;;8.60;99.90;;;;;;5001718;28;20184;-84
2023/03/10 00:14:48;;;;;;;14.50;5.90;;;8.60;99.90;;;;;;5019029;28;20192;-85
2023/03/10 00:17:13;;;;;;;12.70;6.47;;;8.60;99.90;;;;;;5000900;28;20180;-86
2023/03/10 00:19:39;;;;;;;16.93;6.70;;;8.70;99.90;;;;;;5000930;28;20230;-86
2023/03/10 00:22:05;;;;;;;15.10;6.37;;;8.60;99.90;;;;;;5001217;28;20188;-86
2023/03/10 00:24:31;;;;;;;11.17;5.73;;;8.70;99.90;;;;;;5000936;28;20206;-85
2023/03/10 00:26:57;;;;;;;11.20;5.97;;;8.60;99.90;;;;;;5001978;28;20211;-85
2023/03/10 00:29:23;;;;;;;11.80;5.47;;;8.70;99.90;;;;;;5001305;28;20209;-86
2023/03/10 00:31:48;;;;;;;7.57;5.13;;;8.80;99.90;;;;;;5001361;28;20184;-85
2023/03/10 00:34:14;;;;;;;11.50;5.60;;;8.90;99.90;;;;;;5000304;28;20200;-85
2023/03/10 00:36:40;;;;;;;8.47;5.53;;;8.90;99.90;;;;;;5001141;28;20180;-85
2023/03/10 00:39:06;;;;;;;6.17;5.10;;;8.90;99.90;;;;;;5000677;28;20168;-86
2023/03/10 00:41:40;;;;;;;14.23;6.20;;;8.90;99.90;;;;;;5000870;28;20558;-86
2023/03/10 00:44:09;;;;;;;10.17;5.30;;;8.90;99.90;;;;;;5000974;28;20175;-87
2023/03/10 00:46:37;;;;;;;13.13;5.07;;;8.90;99.90;;;;;;5001381;28;20191;-86
2023/03/10 00:49:04;;;;;;;10.73;5.30;;;9.10;99.90;;;;;;5000732;28;20199;-86
2023/03/10 00:51:30;;;;;;;8.33;5.60;;;9.10;99.90;;;;;;5000290;28;20212;-87
2023/03/10 00:53:57;;;;;;;7.97;5.50;;;9.20;99.90;;;;;;5000598;28;20187;-86
2023/03/10 00:56:25;;;;;;;9.80;5.63;;;9.20;99.90;;;;;;5000315;28;20652;-86
2023/03/10 00:58:53;;;;;;;7.30;4.83;;;9.10;99.90;;;;;;5001004;28;20223;-84
2023/03/10 01:01:23;;;;;;;12.70;4.60;;;9.20;99.90;;;;;;5001022;28;20188;-85
2023/03/10 01:03:50;;;;;;;7.07;4.43;;;9.10;99.90;;;;;;5002653;28;20176;-85
2023/03/10 01:06:16;;;;;;;6.13;4.70;;;9.10;99.90;;;;;;5002352;28;20183;-85
2023/03/10 01:08:41;;;;;;;7.37;4.47;;;9.10;99.90;;;;;;5000859;28;20230;-85
2023/03/10 01:11:07;;;;;;;6.93;4.17;;;9.10;99.90;;;;;;5000102;28;20211;-86
2023/03/10 01:13:33;;;;;;;7.20;4.23;;;9.10;99.90;;;;;;5000187;28;20183;-86
2023/03/10 01:15:59;;;;;;;4.60;4.20;;;9.20;99.90;;;;;;4999954;28;20203;-86
2023/03/10 01:18:24;;;;;;;6.00;4.33;;;9.30;99.90;;;;;;5017562;28;20180;-87
2023/03/10 01:20:50;;;;;;;4.83;4.40;;;9.30;99.90;;;;;;4999209;28;20211;-88
2023/03/10 01:23:23;;;;;;;4.37;4.07;;;9.30;99.90;;;;;;4999773;28;20593;-87
2023/03/10 01:25:49;;;;;;;5.67;4.03;;;9.30;99.90;;;;;;5000163;28;20231;-85
2023/03/10 01:28:15;;;;;;;4.60;3.93;;;9.30;99.90;;;;;;5002177;28;20241;-85
2023/03/10 01:30:42;;;;;;;4.00;3.70;;;9.30;99.90;;;;;;5002344;28;20219;-85
2023/03/10 01:33:09;;;;;;;4.00;3.60;;;9.30;99.90;;;;;;5001243;28;20176;-85
2023/03/10 01:35:35;;;;;;;4.23;3.93;;;9.30;99.90;;;;;;5003641;28;20235;-84
2023/03/10 01:38:01;;;;;;;3.97;3.67;;;9.40;99.90;;;;;;5003907;28;20194;-85
2023/03/10 01:40:28;;;;;;;3.87;3.67;;;9.50;99.90;;;;;;5005585;28;20188;-85
2023/03/10 01:43:19;;;;;;;7.20;4.00;;;9.50;99.90;;;;;;5004503;28;20183;-85
2023/03/10 01:45:45;;;;;;;4.83;3.97;;;9.50;99.90;;;;;;5004975;28;20207;-85
2023/03/10 01:48:12;;;;;;;5.03;3.73;;;9.50;99.90;;;;;;5001509;28;20195;-85
2023/03/10 01:50:39;;;;;;;5.13;3.93;;;9.40;99.90;;;;;;5022262;28;20238;-85
2023/03/10 01:53:04;;;;;;;4.53;4.17;;;9.40;99.90;;;;;;5013071;28;20180;-85
2023/03/10 01:55:34;;;;;;;5.43;4.27;;;9.30;99.90;;;;;;5002109;28;20703;-86
2023/03/10 01:58:01;;;;;;;4.00;3.70;;;9.40;99.90;;;;;;5000747;28;20175;-85
2023/03/10 02:00:28;;;;;;;4.20;3.80;;;9.30;99.90;;;;;;5000039;28;20184;-86
2023/03/10 02:03:16;;;;;;;4.50;4.20;;;9.30;99.90;;;;;;4999546;28;20187;-86
2023/03/10 02:05:48;;;;;;;4.20;3.90;;;9.30;99.90;;;;;;4999667;28;20211;-86
2023/03/10 02:08:15;;;;;;;5.87;4.87;;;9.20;99.90;;;;;;5016851;28;20168;-87
2023/03/10 02:10:41;;;;;;;5.13;4.40;;;9.20;99.90;;;;;;4999042;28;20215;-86
2023/03/10 02:13:07;;;;;;;4.97;4.60;;;9.20;99.90;;;;;;4999944;28;20245;-86
2023/03/10 02:15:33;;;;;;;4.30;4.00;;;9.10;99.90;;;;;;4999376;28;20263;-85
2023/03/10 02:18:01;;;;;;;9.17;4.27;;;9.10;99.90;;;;;;5016803;28;20180;-86
2023/03/10 02:21:02;;;;;;;5.30;3.90;;;9.10;99.90;;;;;;4998933;28;20238;-86
2023/03/10 02:23:53;;;;;;;4.53;4.13;;;9.10;99.90;;;;;;4997465;28;20218;-87
2023/03/10 02:26:18;;;;;;;4.20;3.90;;;9.10;99.90;;;;;;4998697;28;20649;-87
2023/03/10 02:28:46;;;;;;;4.47;4.03;;;9.00;99.90;;;;;;4998666;28;20214;-87
2023/03/10 02:31:13;;;;;;;4.10;3.80;;;9.00;99.90;;;;;;4998274;28;20253;-87
2023/03/10 02:33:40;;;;;;;4.57;4.17;;;9.00;99.90;;;;;;4998641;28;20258;-87
2023/03/10 02:36:21;;;;;;;4.57;4.03;;;8.90;99.90;;;;;;4998552;28;20254;-87
2023/03/10 02:38:48;;;;;;;4.43;4.00;;;8.90;99.90;;;;;;4998939;28;20245;-86
2023/03/10 02:41:27;;;;;;;4.47;4.17;;;8.90;99.90;;;;;;5016397;28;20183;-86
2023/03/10 02:43:56;;;;;;;4.70;4.30;;;8.90;99.90;;;;;;4998899;28;20183;-86
2023/03/10 02:46:22;;;;;;;5.00;4.50;;;8.80;99.90;;;;;;4999579;28;20211;-85
2023/03/10 02:48:49;;;;;;;6.37;4.77;;;8.80;99.90;;;;;;5002750;28;20184;-84
2023/03/10 02:51:25;;;;;;;5.00;4.60;;;8.80;99.90;;;;;;5002337;28;20210;-85
2023/03/10 02:53:50;;;;;;;5.97;5.43;;;8.80;99.90;;;;;;5003427;28;20203;-84
2023/03/10 02:56:16;;;;;;;5.53;5.03;;;8.80;99.90;;;;;;5003463;28;20207;-85
2023/03/10 02:58:42;;;;;;;5.87;5.03;;;8.70;99.90;;;;;;5004796;28;20180;-84
2023/03/10 03:01:08;;;;;;;8.03;5.27;;;8.80;99.90;;;;;;5004351;28;20696;-84
2023/03/10 03:03:34;;;;;;;5.77;5.27;;;8.80;99.90;;;;;;5004311;28;20252;-84
2023/03/10 03:06:00;;;;;;;5.87;5.27;;;8.80;99.90;;;;;;5022034;28;20200;-84
2023/03/10 03:08:26;;;;;;;5.23;4.73;;;8.80;99.90;;;;;;5004448;28;20207;-84
2023/03/10 03:10:52;;;;;;;5.13;4.67;;;8.80;99.90;;;;;;5004233;28;20588;-84
2023/03/10 03:13:18;;;;;;;5.27;4.60;;;8.80;99.90;;;;;;5005062;28;20172;-84
2023/03/10 03:15:44;;;;;;;4.80;4.40;;;8.80;99.90;;;;;;5005198;28;20204;-84
2023/03/10 03:18:10;;;;;;;4.90;4.57;;;8.80;99.90;;;;;;5003808;28;20233;-84
2023/03/10 03:20:37;;;;;;;4.77;4.37;;;8.80;99.90;;;;;;5002488;28;20179;-84
2023/03/10 03:23:03;;;;;;;4.47;4.03;;;8.80;99.90;;;;;;5002182;28;20191;-85
2023/03/10 03:25:29;;;;;;;4.50;4.10;;;8.80;99.90;;;;;;5002880;28;20294;-84
2023/03/10 03:27:57;;;;;;;4.97;4.17;;;8.80;99.90;;;;;;5004271;28;20698;-84
2023/03/10 03:30:25;;;;;;;4.30;4.00;;;8.90;99.90;;;;;;5003539;28;20672;-84
2023/03/10 03:32:52;;;;;;;4.60;4.20;;;8.90;99.90;;;;;;5003719;28;20278;-84
2023/03/10 03:35:22;;;;;;;4.43;4.10;;;8.90;99.90;;;;;;5003295;28;20199;-84
2023/03/10 03:37:48;;;;;;;4.73;4.33;;;8.90;99.90;;;;;;5003094;28;20167;-84
2023/03/10 03:40:14;;;;;;;4.07;3.77;;;8.90;99.90;;;;;;5002732;28;20567;-83
2023/03/10 03:42:45;;;;;;;6.50;4.17;;;8.90;99.90;;;;;;5003692;28;20168;-83
2023/03/10 03:45:14;;;;;;;4.73;3.97;;;8.90;99.90;;;;;;5006391;28;20295;-83
2023/03/10 03:47:40;;;;;;;4.50;4.10;;;8.90;99.90;;;;;;5006791;28;20179;-83
2023/03/10 03:50:09;;;;;;;4.80;4.40;;;8.80;99.90;;;;;;5006662;28;20234;-83
2023/03/10 03:52:34;;;;;;;5.57;3.87;;;8.80;99.90;;;;;;5004878;28;20266;-83
2023/03/10 03:55:00;;;;;;;4.37;3.97;;;8.70;99.90;;;;;;5005787;28;20231;-83
2023/03/10 03:57:26;;;;;;;4.73;4.00;;;8.70;99.90;;;;;;5022680;28;20209;-84
2023/03/10 03:59:52;;;;;;;4.60;4.20;;;8.70;99.90;;;;;;5003386;28;20562;-85
2023/03/10 04:02:18;;;;;;;5.70;4.43;;;8.70;99.90;;;;;;5003141;28;20179;-85
2023/03/10 04:04:44;;;;;;;4.60;4.20;;;8.70;99.90;;;;;;5001492;28;20757;-85
2023/03/10 04:07:10;;;;;;;5.33;4.20;;;8.70;99.90;;;;;;5001523;28;20289;-85
2023/03/10 04:09:38;;;;;;;5.87;4.50;;;8.70;99.90;;;;;;5001803;28;20179;-85
2023/03/10 04:12:05;;;;;;;6.47;4.70;;;8.60;99.90;;;;;;5001560;28;20311;-85
2023/03/10 04:14:31;;;;;;;5.40;4.90;;;8.60;99.90;;;;;;5002134;28;20245;-85
2023/03/10 04:16:57;;;;;;;8.37;5.90;;;8.60;99.90;;;;;;5001292;28;20250;-86
2023/03/10 04:19:23;;;;;;;11.50;6.37;;;8.70;99.90;;;;;;5001789;28;20176;-86
2023/03/10 04:21:48;;;;;;;10.13;6.90;;;8.70;99.90;;;;;;5003219;28;20234;-83
2023/03/10 04:24:14;;;;;;;13.20;6.37;;;8.60;99.90;;;;;;5022362;28;20203;-85
2023/03/10 04:26:40;;;;;;;11.13;6.90;;;8.60;99.90;;;;;;5021122;28;20166;-85
2023/03/10 04:29:06;;;;;;;7.87;6.73;;;8.60;99.90;;;;;;5003654;28;20251;-85
2023/03/10 04:31:32;;;;;;;8.67;6.67;;;8.50;99.90;;;;;;5002960;28;20302;-85
2023/03/10 04:33:57;;;;;;;10.57;7.10;;;8.60;99.90;;;;;;5021459;28;20211;-84
2023/03/10 04:36:23;;;;;;;12.53;7.23;;;8.60;99.90;;;;;;5020612;28;20168;-85
2023/03/10 04:38:49;;;;;;;10.53;7.13;;;8.60;99.90;;;;;;5004452;28;20198;-85
2023/03/10 04:41:16;;;;;;;11.60;7.13;;;8.60;99.90;;;;;;5002211;28;20187;-86
2023/03/10 04:43:42;;;;;;;10.10;7.10;;;8.60;99.90;;;;;;5001050;28;20535;-86
2023/03/10 04:46:08;;;;;;;10.33;7.07;;;8.60;99.90;;;;;;5001532;28;20206;-86
2023/03/10 04:48:33;;;;;;;11.80;7.60;;;8.60;99.90;;;;;;5001823;28;20175;-86
2023/03/10 04:51:02;;;;;;;12.90;7.73;;;8.60;99.90;;;;;;5019232;28;20230;-86
2023/03/10 04:53:28;;;;;;;12.97;7.60;;;8.50;99.90;;;;;;5001933;28;20184;-85
2023/03/10 04:55:54;;;;;;;12.00;8.83;;;8.50;99.90;;;;;;5001935;28;20660;-86
2023/03/10 04:58:21;;;;;;;12.13;8.43;;;8.50;99.90;;;;;;5001118;28;20175;-87
2023/03/10 05:00:47;;;;;;;17.13;9.43;;;8.40;99.90;;;;;;5000408;28;20180;-87
2023/03/10 05:03:12;;;;;;;16.00;9.53;;;8.50;99.90;;;;;;5000839;28;20643;-86
2023/03/10 05:05:38;;;;;;;13.10;9.10;;;8.40;99.90;;;;;;5019932;28;20195;-84
2023/03/10 05:08:04;;;;;;;19.23;8.73;;;8.40;99.90;;;;;;5002993;28;20195;-85
2023/03/10 05:10:30;;;;;;;18.73;9.73;;;8.40;99.90;;;;;;5003420;28;20215;-83
2023/03/10 05:12:56;;;;;;;14.43;8.93;;;8.40;99.90;;;;;;5023017;28;20172;-83
2023/03/10 05:15:22;;;;;;;21.87;8.87;;;8.40;99.90;;;;;;5021294;28;20195;-86
2023/03/10 05:17:48;;;;;;;11.63;8.70;;;8.30;99.90;;;;;;5002187;28;20655;-86
2023/03/10 05:20:14;;;;;;;12.07;7.80;;;8.30;99.90;;;;;;5001015;28;20184;-85
2023/03/10 05:22:40;;;;;;;15.13;8.20;;;8.30;99.90;;;;;;5001028;28;20211;-85
2023/03/10 05:25:07;;;;;;;17.70;7.33;;;8.30;99.90;;;;;;5018874;28;20196;-84
2023/03/10 05:27:35;;;;;;;17.57;7.93;;;8.30;99.90;;;;;;5001651;28;20242;-85
2023/03/10 05:30:05;;;;;;;13.33;6.80;;;8.30;99.90;;;;;;5006274;28;20211;-84
2023/03/10 05:32:35;;;;;;;9.47;6.30;;;8.20;99.90;;;;;;5006331;28;20176;-83
2023/03/10 05:35:06;;;;;;;14.20;7.23;;;8.30;99.90;;;;;;5020957;28;20207;-82
2023/03/10 05:37:38;;;;;;;10.00;6.60;;;8.20;99.90;;;;;;5002440;28;20176;-83
2023/03/10 05:40:06;;;;;;;13.67;6.50;;;8.20;99.90;;;;;;5002262;28;20180;-83
2023/03/10 05:42:32;;;;;;;15.33;7.17;;;8.20;99.90;;;;;;5002230;28;20183;-80
2023/03/10 05:44:57;;;;;;;9.73;6.70;;;8.20;99.90;;;;;;5001037;28;20622;-80
2023/03/10 05:47:23;;;;;;;10.30;6.20;;;8.20;99.90;;;;;;5002053;28;20194;-80
2023/03/10 05:49:49;;;;;;;10.73;6.43;;;8.20;99.90;;;;;;5001461;28;20715;-80
2023/03/10 05:52:15;;;;;;;11.87;6.87;;;8.20;99.90;;;;;;5001658;28;20549;-80
2023/03/10 05:54:43;;;;;;;12.70;6.87;;;8.20;99.90;;;;;;5020513;28;20556;-82
2023/03/10 05:57:09;;;;;;;14.80;6.97;;;8.20;99.90;;;;;;5004084;28;20200;-82
2023/03/10 05:59:34;;;;;;;15.23;6.70;;;8.20;99.90;;;;;;5004481;28;20238;-81
2023/03/10 06:02:00;;;;;;;18.90;7.00;;;8.20;99.90;;;;;;5003534;28;20184;-82
2023/03/10 06:04:32;;;;;;;15.23;7.33;;;8.20;99.90;;;;;;5004000;28;20204;-82
2023/03/10 06:07:01;;;;;;;17.63;5.90;;;8.20;99.90;;;;;;5002375;28;20199;-82
2023/03/10 06:09:29;;;;;;;15.10;6.80;;;8.20;99.90;;;;;;5002322;28;20180;-82
2023/03/10 06:11:55;;;;;;;18.00;6.17;;;8.20;99.90;;;;;;5002721;28;20208;-81
2023/03/10 06:14:21;;;;;;;18.27;6.97;;;8.20;99.90;;;;;;5019788;28;20183;-82
2023/03/10 06:16:50;;;;;;;13.37;6.10;;;8.20;99.90;;;;;;5001968;28;20194;-82
2023/03/10 06:19:17;;;;;;;20.43;7.27;;;8.20;99.90;;;;;;5001494;28;20175;-82
2023/03/10 06:21:43;;;;;;;13.57;6.10;;;8.20;99.90;;;;;;5001386;28;20241;-81
2023/03/10 06:24:09;;;;;;;18.40;6.20;;;8.20;99.90;;;;;;5001317;28;20206;-82
2023/03/10 06:26:35;;;;;;;18.23;6.40;;;8.20;99.90;;;;;;5018567;28;20542;-81
2023/03/10 06:29:00;;;;;;;13.40;6.10;;;8.20;99.90;;;;;;5000340;28;20195;-81
2023/03/10 06:31:26;;;;;;;14.77;6.57;;;8.20;99.90;;;;;;4999832;28;20287;-81
2023/03/10 06:33:53;;;;;;;16.63;6.30;;;8.30;99.90;;;;;;5000227;28;20176;-81
2023/03/10 06:36:21;;;;;;;13.20;6.30;;;8.20;99.90;;;;;;5000284;28;20254;-80
2023/03/10 06:38:47;;;;;;;20.40;6.83;;;8.20;99.90;;;;;;5002724;28;20175;-82
2023/03/10 06:41:13;;;;;;;12.43;6.27;;;8.20;99.90;;;;;;4999257;28;20184;-81
2023/03/10 06:43:39;;;;;;;8.87;6.50;;;8.30;99.90;;;;;;4999976;28;20186;-80
2023/03/10 06:46:09;;;;;;;17.17;6.70;;;8.30;99.90;;;;;;4998979;28;20283;-80
2023/03/10 06:48:35;;;;;;;11.00;6.93;;;8.30;99.90;;;;;;4999545;28;20229;-80
2023/03/10 06:51:04;;;;;;;11.40;6.73;;;8.30;99.90;;;;;;4999361;28;20214;-80
2023/03/10 06:53:37;;;;;;;13.93;7.03;;;8.30;99.90;;;;;;5017432;28;20175;-80
2023/03/10 06:56:10;;;;;;;11.10;7.00;;;8.30;99.90;;;;;;5017361;28;20187;-80
2023/03/10 06:58:36;;;;;;;10.47;7.03;;;8.40;99.90;;;;;;4998951;28;20575;-80
2023/03/10 07:01:02;;;;;;;14.70;6.93;;;8.40;99.90;;;;;;4998983;28;20597;-80
2023/03/10 07:03:28;;;;;;;12.40;6.30;;;8.40;99.90;;;;;;4999059;28;20185;-80
2023/03/10 07:05:57;;;;;;;17.47;6.50;;;8.40;99.90;;;;;;4999484;28;20215;-80
2023/03/10 07:08:22;;;;;;;15.43;6.40;;;8.50;99.90;;;;;;4998804;28;20173;-81
2023/03/10 07:10:48;;;;;;;13.20;6.17;;;8.50;99.90;;;;;;5016267;28;20270;-80
2023/03/10 07:13:16;;;;;;;9.93;6.20;;;8.50;99.90;;;;;;5017301;28;20188;-82
2023/03/10 07:15:43;;;;;;;10.87;6.40;;;8.50;99.90;;;;;;5016967;28;20250;-83
2023/03/10 07:18:09;;;;;;;14.43;6.30;;;8.60;99.90;;;;;;5016742;28;20204;-84
2023/03/10 07:20:37;;;;;;;11.97;5.73;;;8.60;99.90;;;;;;5001762;28;20190;-84
2023/03/10 07:23:03;;;;;;;16.40;6.37;;;8.60;99.90;;;;;;5000501;28;20605;-84
2023/03/10 07:25:29;;;;;;;10.93;6.57;;;8.70;99.90;;;;;;4999787;28;20208;-84
2023/03/10 07:27:54;;;;;;;13.17;5.43;;;8.70;99.90;;;;;;4999842;28;20187;-84
2023/03/10 07:30:20;;;;;;;15.70;5.80;;;8.80;99.90;;;;;;5000144;28;20294;-84
2023/03/10 07:32:46;;;;;;;8.90;5.33;;;8.80;99.90;;;;;;5000537;28;20179;-84
2023/03/10 07:35:12;;;;;;;9.80;5.17;;;8.80;99.90;;;;;;5000491;28;20204;-84
2023/03/10 07:37:39;;;;;;;14.80;6.40;;;8.90;99.90;;;;;;4999501;28;20266;-83
2023/03/10 07:40:07;;;;;;;8.00;5.00;;;8.90;99.90;;;;;;4999353;28;20194;-83
2023/03/10 07:42:43;;;;;;;10.13;5.07;;;8.90;99.90;;;;;;4999784;28;20186;-83
2023/03/10 07:45:11;;;;;;;7.73;5.17;;;8.90;99.90;;;;;;4999147;28;20576;-84
2023/03/10 07:47:40;;;;;;;9.33;5.33;;;8.90;99.90;;;;;;4999785;28;20186;-84
2023/03/10 07:50:06;;;;;;;11.53;5.57;;;9.00;99.90;;;;;;4999972;28;20735;-83
2023/03/10 07:52:32;;;;;;;14.20;6.07;;;9.00;99.90;;;;;;5001198;28;20180;-84
2023/03/10 07:54:58;;;;;;;14.70;5.37;;;9.10;99.90;;;;;;4998814;28;20204;-83
2023/03/10 07:57:23;;;;;;;10.67;5.37;;;9.10;99.90;;;;;;5000062;28;20172;-84
2023/03/10 07:59:50;;;;;;;10.73;5.60;;;9.10;99.90;;;;;;4998278;28;20191;-90
2023/03/10 08:02:16;;;;;;;13.40;5.57;;;9.00;99.90;;;;;;5000216;28;20645;-82
2023/03/10 08:04:42;;;;;;;12.27;5.43;;;9.00;99.90;;;;;;5000076;28;20210;-84
2023/03/10 08:07:08;;;;;;;13.50;6.30;;;8.90;99.90;;;;;;5000640;28;20222;-82
2023/03/10 08:09:34;;;;;;;7.90;5.43;;;8.90;99.90;;;;;;5019357;28;20267;-82
2023/03/10 08:12:00;;;;;;;10.23;4.90;;;8.90;99.90;;;;;;5019112;28;20179;-84
2023/03/10 08:14:30;;;;;;;9.87;5.60;;;8.90;99.90;;;;;;5001983;28;20204;-84
2023/03/10 08:16:56;;;;;;;10.80;5.30;;;8.90;99.90;;;;;;5001460;28;20640;-81
2023/03/10 08:19:24;;;;;;;10.17;6.03;;;8.90;99.90;;;;;;5000373;28;20171;-82
2023/03/10 08:21:49;;;;;;;11.03;5.77;;;9.00;99.90;;;;;;5019249;28;20178;-82
2023/03/10 08:24:15;;;;;;;11.93;5.97;;;9.00;99.90;;;;;;5001279;28;20192;-82
2023/03/10 08:26:41;;;;;;;12.03;6.03;;;9.10;99.90;;;;;;5000043;28;20219;-81
2023/03/10 08:29:06;;;;;;;9.30;5.90;;;9.30;99.90;;;;;;5000662;28;20270;-81
2023/03/10 08:31:32;;;;;;;15.93;6.63;;;9.40;99.90;;;;;;5002188;28;20204;-81
2023/03/10 08:33:58;;;;;;;9.97;5.13;;;9.50;99.90;;;;;;5002727;28;20176;-83
2023/03/10 08:36:29;;;;;;;11.33;5.50;;;9.60;99.90;;;;;;5003519;28;20207;-82
2023/03/10 08:38:59;;;;;;;15.80;5.70;;;9.70;99.90;;;;;;5003688;28;20177;-82
2023/03/10 08:41:50;;;;;;;6.40;5.20;;;9.80;99.90;;;;;;5004847;28;20206;-81
2023/03/10 08:44:17;;;;;;;7.13;5.40;;;9.80;99.90;;;;;;5022202;28;20207;-82
2023/03/10 08:46:44;;;;;;;9.07;5.83;;;9.90;99.90;;;;;;5002940;28;20176;-82
2023/03/10 08:49:11;;;;;;;8.20;5.27;;;9.90;99.90;;;;;;5003448;28;20191;-82
2023/03/10 08:51:38;;;;;;;10.50;5.20;;;9.80;99.90;;;;;;5002865;28;20230;-81
2023/03/10 08:54:04;;;;;;;11.30;5.80;;;9.70;99.90;;;;;;5001121;28;20250;-83
2023/03/10 08:56:30;;;;;;;11.57;5.93;;;9.60;99.90;;;;;;5001291;28;20176;-82
2023/03/10 08:58:59;;;;;;;6.07;5.40;;;9.60;99.90;;;;;;5001374;28;20652;-82
2023/03/10 09:01:32;;;;;;;8.57;5.37;;;9.50;99.90;;;;;;5002605;28;20183;-83
2023/03/10 09:03:58;;;;;;;8.27;5.67;;;9.40;99.90;;;;;;5002224;28;20180;-85
2023/03/10 09:06:24;;;;;;;9.67;5.20;;;9.30;99.90;;;;;;5002622;28;20176;-85
2023/03/10 09:08:51;;;;;;;7.27;5.33;;;9.20;99.90;;;;;;5002114;28;20254;-85
2023/03/10 09:11:21;;;;;;;10.27;5.80;;;9.10;99.90;;;;;;5002980;28;20195;-85
2023/03/10 09:13:47;;;;;;;6.40;5.60;;;9.10;99.90;;;;;;5002018;28;20179;-82
2023/03/10 09:16:14;;;;;;;15.07;6.10;;;9.10;99.90;;;;;;5002001;28;20204;-82
2023/03/10 09:18:40;;;;;;;11.33;6.53;;;9.10;99.90;;;;;;5002994;28;20180;-82
2023/03/10 09:21:06;;;;;;;15.30;7.30;;;9.10;99.90;;;;;;5001823;28;20194;-87
2023/03/10 09:23:32;;;;;;;9.90;6.33;;;9.10;99.90;;;;;;5002170;28;20203;-83
2023/03/10 09:25:58;;;;;;;12.43;7.33;;;9.10;99.90;;;;;;5002217;28;20205;-83
2023/03/10 09:28:23;;;;;;;11.60;7.20;;;9.10;99.90;;;;;;5002648;28;20653;-84
2023/03/10 09:30:49;;;;;;;13.70;7.63;;;9.10;99.90;;;;;;5019888;28;20199;-85
2023/03/10 09:33:20;;;;;;;10.03;7.77;;;9.10;99.90;;;;;;5001407;28;20184;-86
2023/03/10 09:35:48;;;;;;;13.00;8.20;;;9.20;99.90;;;;;;5000197;28;20200;-85
2023/03/10 09:38:14;;;;;;;14.10;8.17;;;9.30;99.90;;;;;;5000841;28;20172;-85
2023/03/10 09:40:58;;;;;;;15.30;8.17;;;9.40;99.90;;;;;;4999863;28;20190;-86
2023/03/10 09:43:25;;;;;;;12.93;8.90;;;9.40;99.90;;;;;;5000229;28;20180;-86
2023/03/10 09:46:04;;;;;;;20.90;8.90;;;9.40;99.90;;;;;;5000514;28;20208;-86
2023/03/10 09:48:49;;;;;;;13.27;8.00;;;9.40;99.90;;;;;;5000567;28;20191;-86
2023/03/10 09:51:19;;;;;;;22.67;8.20;;;9.40;99.90;;;;;;4999653;28;20231;-86
2023/03/10 09:54:15;;;;;;;15.73;8.13;;;9.40;99.90;;;;;;4999629;28;20259;-87
2023/03/10 09:56:41;;;;;;;12.50;7.70;;;9.40;99.90;;;;;;4999658;28;20172;-87
2023/03/10 09:59:15;;;;;;;13.30;6.50;;;9.50;99.90;;;;;;5017313;28;20701;-87
2023/03/10 10:01:45;;;;;;;10.13;6.30;;;9.60;99.90;;;;;;5001615;28;20175;-84
2023/03/10 10:04:19;;;;;;;16.77;7.20;;;9.60;99.90;;;;;;5003582;28;20171;-82
2023/03/10 10:06:46;;;;;;;14.45;7.10;;;9.60;99.90;;;;;;5002047;28;20175;-82
2023/03/10 10:09:27;;;;;;;13.57;7.07;;;9.80;99.90;;;;;;5002396;28;20184;-86
2023/03/10 10:11:54;;;;;;;12.57;7.20;;;9.80;99.90;;;;;;5002002;28;20635;-86
2023/03/10 10:14:28;;;;;;;11.13;6.30;;;9.80;99.90;;;;;;5025993;28;20192;-85
2023/03/10 10:17:12;;;;;;;12.32;6.90;;;9.90;99.90;;;;;;5022486;28;20180;-86
2023/03/10 10:19:39;;;;;;;10.90;6.95;;;9.80;99.90;;;;;;5023122;28;20154;-86
2023/03/10 10:22:25;;;;;;;13.57;6.97;;;9.80;99.90;;;;;;5021217;28;20270;-86
2023/03/10 10:25:09;;;;;;;12.43;6.93;;;9.80;99.90;;;;;;5019315;28;20207;-86
2023/03/10 10:27:36;;;;;;;12.03;7.10;;;9.90;99.90;;;;;;5001503;28;20554;-86
2023/03/10 10:30:32;;;;;;;11.20;7.18;;;9.90;99.90;;;;;;5001848;28;20266;-86
2023/03/10 10:33:12;;;;;;;10.97;6.73;;;9.90;99.90;;;;;;5002222;28;20190;-87
2023/03/10 10:35:40;;;;;;;11.90;7.00;;;10.00;99.90;;;;;;5001437;28;20281;-86
2023/03/10 10:38:09;;;;;;;17.03;7.43;;;10.00;99.90;;;;;;5000698;28;20641;-87
2023/03/10 10:41:01;;;;;;;14.17;7.73;;;10.10;99.90;;;;;;5000236;28;20241;-87
2023/03/10 10:43:27;;;;;;;11.52;6.72;;;10.20;99.90;;;;;;4999333;28;20645;-87
2023/03/10 10:45:56;;;;;;;15.43;7.53;;;10.10;99.90;;;;;;5000697;28;20684;-87
2023/03/10 10:48:42;;;;;;;14.50;6.38;;;10.10;99.90;;;;;;5011717;28;20184;-87
2023/03/10 10:51:31;;;;;;;16.03;7.00;;;10.10;99.90;;;;;;5000117;28;20211;-87
2023/03/10 10:54:05;;;;;;;16.63;6.80;;;10.20;99.90;;;;;;5008354;28;20175;-87
2023/03/10 10:56:31;;;;;;;15.48;7.75;;;10.20;99.90;;;;;;5006960;28;20644;-86
2023/03/10 10:59:18;;;;;;;14.40;7.07;;;10.40;99.90;;;;;;5000932;28;20715;-86
2023/03/10 11:01:47;;;;;;;15.90;6.75;;;10.60;99.90;;;;;;5000361;28;20190;-86
2023/03/10 11:04:13;;;;;;;15.32;7.13;;;10.50;99.90;;;;;;5000402;28;20254;-86
2023/03/10 11:06:39;;;;;;;17.15;6.80;;;10.50;99.90;;;;;;5000313;28;20186;-86
2023/03/10 11:09:08;;;;;;;14.88;7.00;;;10.40;99.90;;;;;;4999589;28;20262;-86
2023/03/10 11:11:48;;;;;;;15.63;5.93;;;10.50;99.90;;;;;;5016713;28;20264;-86
2023/03/10 11:14:20;;;;;;;10.70;6.63;;;10.50;99.90;;;;;;4999301;28;20171;-86
2023/03/10 11:16:46;;;;;;;12.13;6.72;;;10.50;99.90;;;;;;4998560;28;20199;-86
2023/03/10 11:19:17;;;;;;;8.97;5.13;;;10.50;99.90;;;;;;4999611;28;20555;-86
2023/03/10 11:21:53;;;;;;;9.57;5.82;;;10.60;99.90;;;;;;4998898;28;20211;-86
2023/03/10 11:24:22;;;;;;;8.43;5.40;;;10.50;99.90;;;;;;4999170;28;20238;-86
2023/03/10 11:27:09;;;;;;;10.47;5.17;;;10.50;99.90;;;;;;4999246;28;20215;-86
2023/03/10 11:29:56;;;;;;;8.77;5.00;;;10.70;99.90;;;;;;5000035;28;20252;-86
2023/03/10 11:32:49;;;;;;;8.90;4.88;;;11.10;99.90;;;;;;4999991;28;20186;-86
2023/03/10 11:35:21;;;;;;;11.05;4.97;;;11.50;99.90;;;;;;4998255;28;20195;-86
2023/03/10 11:37:54;;;;;;;11.18;5.00;;;11.70;99.90;;;;;;5015802;28;20156;-86
2023/03/10 11:40:47;;;;;;;4.93;4.25;;;12.10;99.90;;;;;;5001538;28;20180;-86
2023/03/10 11:43:37;;;;;;;8.38;4.50;;;12.10;99.90;;;;;;5019985;28;20160;-86
2023/03/10 11:46:21;;;;;;;8.93;5.70;;;12.00;99.90;;;;;;5000715;28;20612;-86
2023/03/10 11:48:52;;;;;;;7.65;4.50;;;11.90;99.90;;;;;;4999449;28;20183;-86
2023/03/10 11:51:37;;;;;;;8.18;4.25;;;11.90;99.90;;;;;;4998365;28;20290;-86
2023/03/10 11:54:34;;;;;;;7.28;4.57;;;12.00;99.90;;;;;;5014998;28;20179;-85
2023/03/10 11:57:05;;;;;;;10.85;4.13;;;12.10;99.90;;;;;;4992229;28;20222;-86
2023/03/10 11:59:35;;;;;;;7.50;4.10;;;12.20;99.90;;;;;;4998782;28;20167;-86
2023/03/10 12:02:14;;;;;;;8.48;4.38;;;12.20;99.90;;;;;;4999697;28;20283;-86
2023/03/10 12:04:46;;;;;;;5.88;4.07;;;12.00;99.90;;;;;;5001920;28;20261;-85
2023/03/10 12:07:20;;;;;;;8.93;3.70;;;11.80;99.90;;;;;;5002736;28;20168;-86
2023/03/10 12:09:53;;;;;;;5.57;3.72;;;11.80;99.90;;;;;;5020185;28;20569;-86
2023/03/10 12:12:35;;;;;;;6.55;3.70;;;11.60;99.90;;;;;;5003100;28;20175;-86
2023/03/10 12:15:10;;;;;;;3.88;3.47;;;11.60;99.90;;;;;;5021239;28;20198;-86
2023/03/10 12:17:38;;;;;;;7.50;3.90;;;11.40;99.90;;;;;;5003724;28;20175;-86
2023/03/10 12:20:12;;;;;;;8.85;3.55;;;11.30;99.90;;;;;;5021222;28;20176;-86
2023/03/10 12:22:41;;;;;;;6.22;3.85;;;11.30;99.90;;;;;;5002085;28;20202;-86
2023/03/10 12:25:28;;;;;;;4.85;3.55;;;11.20;99.90;;;;;;5002220;28;20199;-85
2023/03/10 12:28:16;;;;;;;4.63;3.63;;;11.20;99.90;;;;;;5002307;28;20160;-87
2023/03/10 12:30:49;;;;;;;6.60;3.30;;;11.20;99.90;;;;;;5003869;28;20208;-86
2023/03/10 12:33:32;;;;;;;5.47;3.55;;;11.20;99.90;;;;;;5002167;28;20203;-86
2023/03/10 12:36:04;;;;;;;5.38;3.25;;;11.10;99.90;;;;;;5002041;28;20196;-86
2023/03/10 12:38:45;;;;;;;4.60;4.17;;;11.00;99.90;;;;;;5020067;28;20246;-85
2023/03/10 12:41:31;;;;;;;4.32;3.40;;;10.40;99.90;;;;;;5002207;28;20617;-86
2023/03/10 12:43:59;;;;;;;6.87;3.70;;;10.10;99.90;;;;;;5000336;28;20183;-86
2023/03/10 12:46:28;;;;;;;5.73;4.10;;;9.80;99.90;;;;;;5001819;28;20664;-87
2023/03/10 12:49:15;;;;;;;7.93;4.10;;;9.70;99.90;;;;;;5001981;28;20183;-87
2023/03/10 12:51:47;;;;;;;6.63;4.20;;;9.60;99.90;;;;;;5001392;28;20196;-87
2023/03/10 12:54:52;;;;;;;6.00;3.97;;;9.60;99.90;;;;;;5001547;28;20218;-86
2023/03/10 12:57:40;;;;;;;8.00;4.00;;;9.40;99.90;;;;;;5001034;28;20552;-86
2023/03/10 13:00:13;;;;;;;8.87;4.43;;;9.40;99.90;;;;;;5000623;28;20172;-86
2023/03/10 13:02:50;;;;;;;4.87;3.60;;;9.30;99.90;;;;;;5001627;28;20182;-87